Hauptseite
METAR-TAF:

METAR-TAF

Flughäfen :

Flughafen Juschno-Sachalinsk

Juschno-Sachalinsk, Russland

Breite: 46-57N, Länge: 142-43E, Höhe: 31 m

Beobachtung

Neuester Wetterbericht von vor 36 Minuten, um 19:00 UTC
Wind 10 kt aus Nord
Temperatur 1°C
Luftfeuchtigkeit 86%
Luftdruck 1023 hPa
Sichtweite 10 km oder mehr
Aufgelockert bewölkt in der Höhe von 4000 ft

METAR: UHSS 221900Z 36005MPS 9999 SCT040 01/M01 Q1023 R01/70D NOSIG RMK QFE766/1021

Zeit: 06:36 (19:36 UTC)

Prognose

Neuester Wetterbericht von vor 2 Stunden und 48 Minuten, um 16:48 UTC
Gültige Prognose vom 22 um 18 UTC bis 23 um 24 UTC
Wind 6 kt aus Nord
Sichtweite 10 km oder mehr
Durchbrochene Bewölkung in der Höhe von 700 ft
Durchbrochene Bewölkung in der Höhe von 2500 ft, Kumulonimbus.
Übergehend zu
vom 23 um 01 UTC bis 23 um 03 UTC
Wind 6 kt aus Süd/Südost

TAF: UHSS 221648Z 2218/2324 36003MPS 9999 BKN007 BKN025CB BECMG 2301/2303 15003MPS NSC

Wetterbeobachtungen und Prognosen von mehr als 4000 Flughäfen (METAR und TAF Bericht).

Die verfügbaren Stationen werden durch gelbe und rote Markierungen auf der Karte dargestellt.

Führen Sie die Maus auf sie, um den Namen der Station zu sehen.

Darauf klicken, um die Beobachtung von Wetterbeobachtungen und Prognosen zu sehen.

Um die Karte zu ändern : klicken Sie auf den grünen Tasten mit einem schwarzen Kreuz Zum Vergrößern, auf den grünen Button mit einem Gedankenstrich zu verkleinern, oder auf die grünen Pfeile für benachbarte Karten.


METAR-TAF: